Hayward, WI

3:18 AM CDT on May 06, 2015 (GMT -0500)
Malar Beach | | Change Station
CLOSE
Current Station
Personal Weather Station
Location: Hayward, WI
Elevation: 1273 ft
Nearby Weather Stations

Elev 1273 ft 45.93 °N, 91.40 °W | Updated 49 seconds ago

Overcast
Overcast
55.4 °F
Feels Like 55.4 °F
N
4.0
Wind Variable Wind from SE
Gusts 5.0 mph

Today
High -- | Low -- °F
--% Chance of Precip.
Yesterday
High -- | Low -- °F
Precip. -- in
5:45 AM 8:19 PM
Waning Gibbous, 95% visible
Pressure 30.15 in
Visibility 10.0 miles
Clouds Mostly Cloudy 2400 ft
Overcast 10000 ft
Dew Point 36 °F
Humidity 47%
Rainfall 0.00 in
Snow Depth Not available.
UV 0 out of 12
Pollen 10.80 out of 12
Air Quality Not available.
Flu Activity Local Activity
SPECI KHYR 060812Z AUTO 15007KT 10SM BKN024 OVC100 13/01 A3015 RMK AO2 T01330011

More Conditions Fewer Conditions

Pressure 30.15 in
Visibility 10.0 miles
Clouds Mostly Cloudy 2400 ft
Overcast 10000 ft
Dew Point 36 °F
Humidity 47%
Rainfall 0.00 in
Snow Depth Not available.
UV 0 out of 12
Pollen 10.80 out of 12
Air Quality Not available.
Flu Activity Local Activity
SPECI KHYR 060812Z AUTO 15007KT 10SM BKN024 OVC100 13/01 A3015 RMK AO2 T01330011

More Conditions Fewer Conditions

10-Day Weather Forecast

Almanac

Astronomy

May. 06, 2015 Rise Set
Actual Time
Civil Twilight
Nautical Twilight
Astronomical Twilight
Moon
Length of Visible Light
Length of Day
Tomorrow will be .
, % of the Moon is Illuminated

Today's Extremes

State Highs State Lows

Community

WunderPhotos

Upload Photos

1,818,851 photos uploaded!

WunderBlogs® & News

Nearby

Air Quality

  Air Quality AQ Index Pollutant
Not available.

Snow Depth

Station Depth Elevation

Earthquake Activity

City Distance Mag. Time & Date
Minimum magnitude displayed is 2.5.

Coastal Water Temperatures

Place Temperature

Stations

Nearby Weather Stations

Station Location Temp. Windchill Dew Point Humidity Wind Precip. Elev Updated Type